createdAt,value
2019-03-06T00:01:39.667Z,96921.37
2019-03-06T00:04:46.662Z,96926.40
2019-03-06T00:07:53.843Z,96923.77
2019-03-06T00:11:00.880Z,96920.88
2019-03-06T00:14:07.731Z,96925.81
2019-03-06T00:17:14.648Z,96928.08
2019-03-06T00:20:21.820Z,96924.97
2019-03-06T00:23:28.863Z,96921.41
2019-03-06T00:26:37.290Z,96927.16
2019-03-06T00:29:45.192Z,96931.11
2019-03-06T00:32:52.172Z,96928.45
2019-03-06T00:35:59.861Z,96925.77
2019-03-06T00:39:09.405Z,96927.17
2019-03-06T00:42:18.621Z,96916.63
2019-03-06T00:45:25.550Z,96927.50
2019-03-06T00:48:33.640Z,96929.23
2019-03-06T00:51:40.602Z,96923.52
2019-03-06T00:54:47.757Z,96929.02
2019-03-06T00:57:54.872Z,96924.64
2019-03-06T01:01:01.688Z,96924.66
2019-03-06T01:04:09.606Z,96919.33
2019-03-06T01:07:16.570Z,96921.55
2019-03-06T01:10:23.597Z,96928.13
2019-03-06T01:13:30.711Z,96924.09
2019-03-06T01:16:37.607Z,96920.41
2019-03-06T01:19:44.473Z,96921.93
2019-03-06T01:22:51.691Z,96923.98
2019-03-06T01:25:58.917Z,96917.52
2019-03-06T01:29:05.911Z,96919.52
2019-03-06T01:32:12.751Z,96919.80
2019-03-06T01:35:36.045Z,96916.88
2019-03-06T01:39:07.888Z,96912.52
2019-03-06T01:42:34.197Z,96908.23
2019-03-06T01:45:41.070Z,96912.28
2019-03-06T01:48:47.993Z,96911.14
2019-03-06T01:51:54.979Z,96903.07
2019-03-06T01:55:01.900Z,96903.05
2019-03-06T01:58:08.834Z,96904.48
2019-03-06T02:01:15.950Z,96902.41
2019-03-06T02:04:22.800Z,96899.86
2019-03-06T02:07:29.964Z,96893.61
2019-03-06T02:10:36.838Z,96905.53
2019-03-06T02:13:43.892Z,96898.81
2019-03-06T02:16:50.733Z,96896.34
2019-03-06T02:19:57.671Z,96900.44
2019-03-06T02:23:04.889Z,96895.05
2019-03-06T02:26:12.067Z,96900.20
2019-03-06T02:29:19.036Z,96900.05
2019-03-06T02:32:26.114Z,96907.67
2019-03-06T02:35:33.464Z,96900.18
2019-03-06T02:38:40.372Z,96905.98
2019-03-06T02:41:47.303Z,96908.07
2019-03-06T02:44:54.351Z,96906.22
2019-03-06T02:48:02.478Z,96905.22
2019-03-06T02:51:09.552Z,96915.36
2019-03-06T02:54:18.930Z,96913.73
2019-03-06T02:57:25.900Z,96912.88
2019-03-06T03:00:57.810Z,96909.91
2019-03-06T03:04:16.619Z,96912.31
2019-03-06T03:07:23.565Z,96918.11
2019-03-06T03:10:30.850Z,96926.73
2019-03-06T03:13:39.542Z,96917.69
2019-03-06T03:16:46.558Z,96918.86
2019-03-06T03:19:53.378Z,96909.81
2019-03-06T03:23:00.249Z,96911.09
2019-03-06T03:26:07.400Z,96911.08
2019-03-06T03:29:14.297Z,96908.94
2019-03-06T03:32:21.172Z,96912.08
2019-03-06T03:35:28.359Z,96902.88
2019-03-06T03:38:38.473Z,96907.02
2019-03-06T03:41:45.407Z,96903.58
2019-03-06T03:44:52.250Z,96898.90
2019-03-06T03:47:59.622Z,96900.07
2019-03-06T03:51:06.523Z,96900.66
2019-03-06T03:54:13.495Z,96896.36
2019-03-06T03:57:20.833Z,96901.88
2019-03-06T04:00:27.745Z,96901.72
2019-03-06T04:03:37.589Z,96907.42
2019-03-06T04:06:44.503Z,96904.55
2019-03-06T04:09:51.533Z,96898.91
2019-03-06T04:12:58.428Z,96894.47
2019-03-06T04:16:05.307Z,96885.20
2019-03-06T04:19:12.235Z,96884.50
2019-03-06T04:22:19.173Z,96879.00
2019-03-06T04:25:26.742Z,96864.20
2019-03-06T04:28:36.655Z,96867.96
2019-03-06T04:31:43.656Z,96868.83
2019-03-06T04:34:50.495Z,96865.12
2019-03-06T04:37:57.522Z,96865.94
2019-03-06T04:41:04.436Z,96867.99
2019-03-06T04:44:11.418Z,96853.74
2019-03-06T04:47:18.248Z,96863.39
2019-03-06T04:50:26.323Z,96862.53
2019-03-06T04:53:33.412Z,96864.22
2019-03-06T04:56:40.234Z,96870.63
2019-03-06T04:59:47.427Z,96874.00
2019-03-06T05:02:54.410Z,96868.92
2019-03-06T05:06:01.343Z,96864.77
2019-03-06T05:09:09.292Z,96871.98
2019-03-06T05:12:16.257Z,96881.27
2019-03-06T05:15:23.472Z,96885.08
2019-03-06T05:18:40.541Z,96884.22
2019-03-06T05:21:47.605Z,96882.86
2019-03-06T05:24:54.625Z,96874.08
2019-03-06T05:28:01.650Z,96878.69
2019-03-06T05:31:08.690Z,96884.11
2019-03-06T05:34:15.530Z,96879.16
2019-03-06T05:38:07.336Z,96871.17
2019-03-06T05:41:14.367Z,96871.60
2019-03-06T05:44:21.188Z,96863.67
2019-03-06T05:47:28.298Z,96845.64
2019-03-06T05:50:35.903Z,96845.55
2019-03-06T05:53:42.868Z,96837.79
2019-03-06T05:56:49.628Z,96839.73
2019-03-06T05:59:56.641Z,96842.71
2019-03-06T06:03:03.591Z,96838.49
2019-03-06T06:06:10.723Z,96835.41
2019-03-06T06:09:17.582Z,96846.39
2019-03-06T06:12:24.450Z,96850.59
2019-03-06T06:15:31.493Z,96847.17
2019-03-06T06:18:38.362Z,96847.55
2019-03-06T06:22:13.434Z,96839.90
2019-03-06T06:25:20.387Z,96838.60
2019-03-06T06:28:30.569Z,96838.89
2019-03-06T06:31:37.538Z,96833.17
2019-03-06T06:34:44.453Z,96826.52
2019-03-06T06:37:51.433Z,96819.67
2019-03-06T06:41:02.238Z,96823.84
2019-03-06T06:44:24.541Z,96814.18
2019-03-06T06:47:31.585Z,96814.51
2019-03-06T06:50:46.170Z,96808.31
2019-03-06T06:54:16.481Z,96810.42
2019-03-06T06:58:12.853Z,96804.07
2019-03-06T07:02:21.225Z,96802.63
2019-03-06T07:05:43.467Z,96789.75
2019-03-06T07:09:03.045Z,96786.61
2019-03-06T07:12:17.206Z,96797.42
2019-03-06T07:15:34.759Z,96792.92
2019-03-06T07:18:59.068Z,96796.67
2019-03-06T07:22:24.904Z,96797.31
2019-03-06T07:25:47.188Z,96801.45
2019-03-06T07:29:19.544Z,96803.80
2019-03-06T07:32:35.554Z,96804.55
2019-03-06T07:36:19.472Z,96800.72
2019-03-06T07:39:28.685Z,96804.47
2019-03-06T07:42:51.847Z,96801.23
2019-03-06T07:46:11.169Z,96793.61
2019-03-06T07:49:44.986Z,96789.33
2019-03-06T07:54:03.749Z,96786.53
2019-03-06T07:57:38.608Z,96783.92
2019-03-06T08:00:46.078Z,96768.45
2019-03-06T08:04:14.433Z,96761.20
2019-03-06T08:07:21.412Z,96759.72
2019-03-06T08:10:31.622Z,96750.87
2019-03-06T08:13:53.354Z,96741.00
2019-03-06T08:17:12.664Z,96737.68
2019-03-06T08:20:37.483Z,96740.63
2019-03-06T08:24:09.247Z,96734.98
2019-03-06T08:27:16.385Z,96725.44
2019-03-06T08:30:24.534Z,96719.66
2019-03-06T08:33:31.837Z,96713.38
2019-03-06T08:36:38.609Z,96715.70
2019-03-06T08:39:45.620Z,96713.38
2019-03-06T08:42:52.495Z,96717.91
2019-03-06T08:46:33.751Z,96719.81
2019-03-06T08:50:08.399Z,96719.39
2019-03-06T08:53:26.822Z,96710.69
2019-03-06T08:56:44.596Z,96705.14
2019-03-06T09:00:09.466Z,96710.51
2019-03-06T09:03:29.827Z,96704.14
2019-03-06T09:06:56.038Z,96696.37
2019-03-06T09:10:20.484Z,96686.14
2019-03-06T09:13:55.704Z,96677.73
2019-03-06T09:17:20.858Z,96694.81
2019-03-06T09:20:55.825Z,96695.66
2019-03-06T09:24:20.361Z,96688.18
2019-03-06T09:27:50.763Z,96686.69
2019-03-06T09:31:07.128Z,96678.95
2019-03-06T09:34:28.824Z,96675.24
2019-03-06T09:38:10.740Z,96676.80
2019-03-06T09:41:36.570Z,96669.42
2019-03-06T09:45:01.044Z,96673.84
2019-03-06T09:48:18.041Z,96672.69
2019-03-06T09:51:45.004Z,96666.45
2019-03-06T09:55:08.968Z,96661.43
2019-03-06T09:58:25.036Z,96660.25
2019-03-06T10:02:06.275Z,96653.86
2019-03-06T10:05:12.415Z,96647.67
2019-03-06T10:08:36.317Z,96643.27
2019-03-06T10:12:00.796Z,96634.22
2019-03-06T10:15:13.836Z,96638.78
2019-03-06T10:18:24.525Z,96636.70
2019-03-06T10:21:31.658Z,96637.69
2019-03-06T10:24:38.503Z,96629.66
2019-03-06T10:27:45.491Z,96624.84
2019-03-06T10:31:01.849Z,96633.91
2019-03-06T10:34:00.956Z,96634.83
2019-03-06T10:37:10.736Z,96639.61
2019-03-06T10:40:19.202Z,96636.92
2019-03-06T10:43:27.845Z,96636.46
2019-03-06T10:46:35.244Z,96639.48
2019-03-06T10:49:42.250Z,96630.30
2019-03-06T10:52:49.111Z,96629.05
2019-03-06T10:55:56.442Z,96619.93
2019-03-06T10:59:05.074Z,96618.11
2019-03-06T11:02:12.225Z,96615.22
2019-03-06T11:05:25.813Z,96613.30
2019-03-06T11:08:33.269Z,96613.30
2019-03-06T11:11:40.830Z,96606.53
2019-03-06T11:14:47.861Z,96595.56
2019-03-06T11:17:57.293Z,96603.56
2019-03-06T11:21:04.387Z,96598.52
2019-03-06T11:24:12.857Z,96604.16
2019-03-06T11:27:20.038Z,96580.94
2019-03-06T11:30:34.934Z,96586.36
2019-03-06T11:33:42.123Z,96583.02
2019-03-06T11:36:49.440Z,96584.75
2019-03-06T11:39:56.613Z,96574.68
2019-03-06T11:43:03.639Z,96558.69
2019-03-06T11:46:12.555Z,96546.72
2019-03-06T11:49:19.563Z,96540.01
2019-03-06T11:52:26.481Z,96525.91
2019-03-06T11:55:34.127Z,96529.98
2019-03-06T11:58:41.587Z,96519.42
2019-03-06T12:01:50.285Z,96511.31
2019-03-06T12:04:57.201Z,96502.98
2019-03-06T12:08:05.887Z,96493.67
2019-03-06T12:11:13.006Z,96487.67
2019-03-06T12:14:19.934Z,96477.29
2019-03-06T12:17:26.988Z,96481.48
2019-03-06T12:20:34.822Z,96475.00
2019-03-06T12:23:44.918Z,96479.60
2019-03-06T12:26:52.883Z,96478.91
2019-03-06T12:30:01.109Z,96476.36
2019-03-06T12:33:08.290Z,96477.28
2019-03-06T12:36:15.475Z,96482.17
2019-03-06T12:39:22.416Z,96465.69
2019-03-06T12:42:34.822Z,96463.25
2019-03-06T12:45:43.361Z,96454.45
2019-03-06T12:49:15.554Z,96454.07
2019-03-06T12:52:24.078Z,96437.03
2019-03-06T12:55:33.760Z,96425.65
2019-03-06T12:58:40.801Z,96397.83
2019-03-06T13:01:50.415Z,96386.78
2019-03-06T13:04:57.491Z,96383.33
2019-03-06T13:08:04.869Z,96376.68
2019-03-06T13:11:14.935Z,96362.30
2019-03-06T13:14:21.921Z,96352.56
2019-03-06T13:17:31.332Z,96349.50
2019-03-06T13:20:40.274Z,96343.25
2019-03-06T13:23:47.285Z,96345.65
2019-03-06T13:26:54.236Z,96341.53
2019-03-06T13:30:01.235Z,96342.44
2019-03-06T13:33:13.904Z,96331.96
2019-03-06T13:36:20.957Z,96330.66
2019-03-06T13:39:28.234Z,96330.17
2019-03-06T13:42:37.242Z,96330.68
2019-03-06T13:45:44.199Z,96320.23
2019-03-06T13:48:51.133Z,96324.66
2019-03-06T13:51:58.114Z,96324.14
2019-03-06T13:55:06.235Z,96317.20
2019-03-06T13:58:13.267Z,96318.81
2019-03-06T14:01:20.456Z,96306.16
2019-03-06T14:04:33.632Z,96305.44
2019-03-06T14:07:40.657Z,96290.34
2019-03-06T14:10:47.639Z,96274.71
2019-03-06T14:13:57.106Z,96266.80
2019-03-06T14:17:05.458Z,96259.94
2019-03-06T14:20:12.810Z,96251.30
2019-03-06T14:23:19.754Z,96244.69
2019-03-06T14:26:29.424Z,96244.05
2019-03-06T14:29:42.283Z,96241.25
2019-03-06T14:32:49.801Z,96232.22
2019-03-06T14:35:56.789Z,96229.84
2019-03-06T14:39:05.451Z,96222.67
2019-03-06T14:42:13.122Z,96216.93
2019-03-06T14:45:20.075Z,96216.53
2019-03-06T14:48:32.548Z,96212.16
2019-03-06T14:51:40.576Z,96204.67
2019-03-06T14:54:47.794Z,96204.00
2019-03-06T14:57:54.819Z,96201.00
2019-03-06T15:01:03.402Z,96194.67
2019-03-06T15:04:10.618Z,96197.45
2019-03-06T15:07:17.668Z,96188.36
2019-03-06T15:10:28.601Z,96181.73
2019-03-06T15:13:37.209Z,96184.16
2019-03-06T15:16:44.269Z,96163.91
2019-03-06T15:19:51.170Z,96161.13
2019-03-06T15:22:58.253Z,96170.05
2019-03-06T15:26:05.243Z,96159.42
2019-03-06T15:29:12.841Z,96157.59
2019-03-06T15:32:19.848Z,96150.63
2019-03-06T15:35:29.411Z,96145.20
2019-03-06T15:38:36.413Z,96139.20
2019-03-06T15:41:43.495Z,96140.13
2019-03-06T15:44:50.422Z,96133.33
2019-03-06T15:47:59.373Z,96126.25
2019-03-06T15:51:06.234Z,96115.91
2019-03-06T15:54:13.946Z,96119.75
2019-03-06T15:57:21.089Z,96113.33
2019-03-06T16:00:45.742Z,96110.02
2019-03-06T16:03:47.769Z,96096.94
2019-03-06T16:06:54.994Z,96083.18
2019-03-06T16:10:02.058Z,96082.44
2019-03-06T16:13:10.606Z,96076.29
2019-03-06T16:16:17.960Z,96066.66
2019-03-06T16:19:25.180Z,96054.48
2019-03-06T16:22:32.429Z,96059.47
2019-03-06T16:25:40.244Z,96058.11
2019-03-06T16:28:49.033Z,96069.70
2019-03-06T16:31:57.205Z,96070.59
2019-03-06T16:35:17.924Z,96070.41
2019-03-06T16:38:25.409Z,96073.89
2019-03-06T16:41:35.283Z,96066.72
2019-03-06T16:44:46.342Z,96064.92
2019-03-06T16:47:53.475Z,96053.74
2019-03-06T16:51:00.499Z,96045.98
2019-03-06T16:54:07.600Z,96033.23
2019-03-06T16:57:14.675Z,96024.50
2019-03-06T17:00:28.769Z,96021.94
2019-03-06T17:03:35.821Z,96025.22
2019-03-06T17:06:42.687Z,96034.21
2019-03-06T17:09:49.897Z,96032.46
2019-03-06T17:12:57.357Z,96025.98
2019-03-06T17:16:04.436Z,96020.08
2019-03-06T17:19:11.475Z,96028.37
2019-03-06T17:22:18.641Z,96026.42
2019-03-06T17:25:28.262Z,96019.58
2019-03-06T17:28:34.888Z,96010.70
2019-03-06T17:31:46.134Z,96000.98
2019-03-06T17:34:55.079Z,95987.05
2019-03-06T17:38:02.431Z,96001.06
2019-03-06T17:41:09.426Z,95991.37
2019-03-06T17:44:18.161Z,96000.33
2019-03-06T17:47:25.170Z,96005.45
2019-03-06T17:50:35.391Z,95998.09
2019-03-06T17:53:42.429Z,96000.72
2019-03-06T17:56:49.418Z,96006.44
2019-03-06T17:59:56.738Z,96007.49
2019-03-06T18:03:04.050Z,96006.70
2019-03-06T18:06:13.013Z,96008.83
2019-03-06T18:09:20.065Z,95997.64
2019-03-06T18:12:30.499Z,95999.45
2019-03-06T18:15:38.626Z,95984.69
2019-03-06T18:18:45.620Z,95979.23
2019-03-06T18:21:52.884Z,95981.09
2019-03-06T18:24:59.711Z,95978.62
2019-03-06T18:28:06.593Z,95971.96
2019-03-06T18:31:13.505Z,95973.33
2019-03-06T18:34:23.532Z,95969.31
2019-03-06T18:37:31.963Z,95969.67
2019-03-06T18:40:38.916Z,95974.47
2019-03-06T18:43:46.447Z,95977.52
2019-03-06T18:46:53.389Z,95978.80
2019-03-06T18:50:00.605Z,95977.88
2019-03-06T18:53:07.551Z,95974.20
2019-03-06T18:56:14.605Z,95962.94
2019-03-06T18:59:21.624Z,95958.01
2019-03-06T19:02:30.695Z,95954.70
2019-03-06T19:05:37.765Z,95950.21
2019-03-06T19:08:44.837Z,95943.36
2019-03-06T19:11:51.769Z,95931.65
2019-03-06T19:14:59.200Z,95925.59
2019-03-06T19:18:06.422Z,95924.70
2019-03-06T19:21:13.371Z,95912.41
2019-03-06T19:24:20.383Z,95903.38
2019-03-06T19:27:29.524Z,95904.99
2019-03-06T19:30:38.163Z,95900.70
2019-03-06T19:33:46.011Z,95898.52
2019-03-06T19:36:53.618Z,95882.59
2019-03-06T19:40:00.734Z,95888.09
2019-03-06T19:43:07.692Z,95876.74
2019-03-06T19:46:17.258Z,95881.57
2019-03-06T19:49:33.221Z,95877.29
2019-03-06T19:52:46.117Z,95875.09
2019-03-06T19:55:52.971Z,95870.77
2019-03-06T19:59:00.358Z,95868.14
2019-03-06T20:02:08.634Z,95870.41
2019-03-06T20:05:16.040Z,95861.17
2019-03-06T20:08:31.560Z,95849.93
2019-03-06T20:11:38.673Z,95844.80
2019-03-06T20:14:45.669Z,95847.17
2019-03-06T20:17:54.074Z,95851.84
2019-03-06T20:21:00.945Z,95849.84
2019-03-06T20:24:08.399Z,95840.52
2019-03-06T20:27:15.310Z,95840.23
2019-03-06T20:30:22.620Z,95833.11
2019-03-06T20:33:34.117Z,95841.96
2019-03-06T20:36:41.209Z,95832.08
2019-03-06T20:39:48.197Z,95832.34
2019-03-06T20:42:55.209Z,95829.17
2019-03-06T20:46:02.296Z,95831.16
2019-03-06T20:49:09.558Z,95830.70
2019-03-06T20:52:16.531Z,95828.62
2019-03-06T20:55:24.910Z,95837.55
2019-03-06T20:58:33.157Z,95839.75
2019-03-06T21:01:40.074Z,95846.91
2019-03-06T21:04:47.263Z,95837.76
2019-03-06T21:07:56.511Z,95842.79
2019-03-06T21:11:04.595Z,95837.31
2019-03-06T21:14:11.436Z,95829.42
2019-03-06T21:17:18.361Z,95829.33
2019-03-06T21:20:29.898Z,95829.16
2019-03-06T21:23:36.796Z,95822.55
2019-03-06T21:26:43.795Z,95821.30
2019-03-06T21:29:50.664Z,95822.10
2019-03-06T21:32:57.616Z,95813.05
2019-03-06T21:36:07.707Z,95822.66
2019-03-06T21:39:26.226Z,95817.49
2019-03-06T21:42:33.241Z,95811.00
2019-03-06T21:45:40.191Z,95805.83
2019-03-06T21:48:47.065Z,95804.09
2019-03-06T21:51:54.116Z,95791.11
2019-03-06T21:55:01.101Z,95794.48
2019-03-06T21:58:08.206Z,95803.08
2019-03-06T22:01:15.086Z,95798.25
2019-03-06T22:04:22.111Z,95792.57
2019-03-06T22:07:29.394Z,95794.86
2019-03-06T22:10:36.294Z,95787.64
2019-03-06T22:13:43.153Z,95785.17
2019-03-06T22:16:50.042Z,95784.05
2019-03-06T22:19:57.893Z,95781.62
2019-03-06T22:23:06.045Z,95785.73
2019-03-06T22:26:12.998Z,95782.28
2019-03-06T22:29:20.252Z,95770.77
2019-03-06T22:32:27.511Z,95768.92
2019-03-06T22:35:34.513Z,95760.77
2019-03-06T22:38:41.380Z,95761.72
2019-03-06T22:41:48.755Z,95759.61
2019-03-06T22:44:55.781Z,95753.63
2019-03-06T22:48:02.679Z,95757.02
2019-03-06T22:51:09.651Z,95749.52
2019-03-06T22:54:16.547Z,95744.08
2019-03-06T22:57:23.486Z,95745.34
2019-03-06T23:00:51.999Z,95744.48
2019-03-06T23:04:00.270Z,95737.34
2019-03-06T23:07:07.384Z,95743.17
2019-03-06T23:10:14.176Z,95745.75
2019-03-06T23:13:21.100Z,95740.75
2019-03-06T23:16:31.457Z,95738.00
2019-03-06T23:19:38.500Z,95729.55
2019-03-06T23:22:47.743Z,95721.18
2019-03-06T23:25:55.123Z,95720.21
2019-03-06T23:29:21.223Z,95720.08
2019-03-06T23:32:31.646Z,95713.10
2019-03-06T23:35:38.505Z,95723.25
2019-03-06T23:38:45.484Z,95715.42
2019-03-06T23:41:55.366Z,95708.38
2019-03-06T23:45:03.910Z,95710.58
2019-03-06T23:48:10.858Z,95706.27
2019-03-06T23:51:25.094Z,95705.98
2019-03-06T23:54:32.032Z,95701.14
2019-03-06T23:57:38.856Z,95707.00
